Time;durP1;ratioP1;P1;durP2;ratioP2;P2;SDS_P1;SDS_P2;PMS_P1;PMS_P2;Temp;Humidity;BMP_temperature;BMP_pressure;BME280_temperature;BME280_humidity;BME280_pressure;Samples;Min_cycle;Max_cycle;Signal;HPM_P1;HPM_P2
2022/10/08 00:01:52;;;;;;;13.60;4.77;;;;;;;12.03;79.11;101444.22;5263357;28;20073;-72
2022/10/08 00:04:23;;;;;;;12.07;3.73;;;;;;;12.06;79.16;101445.06;5263607;28;20041;-72
2022/10/08 00:06:54;;;;;;;12.57;3.53;;;;;;;12.07;79.34;101450.28;5263175;28;20067;-73
2022/10/08 00:09:26;;;;;;;11.50;3.33;;;;;;;12.11;78.72;101444.16;5261918;28;20021;-74
2022/10/08 00:11:57;;;;;;;14.50;3.80;;;;;;;12.13;79.21;101450.22;5263015;28;20033;-72
2022/10/08 00:14:28;;;;;;;12.37;3.77;;;;;;;12.14;79.28;101438.91;5262987;28;20456;-72
2022/10/08 00:17:00;;;;;;;11.70;3.63;;;;;;;12.17;79.32;101440.59;5262940;28;20089;-73
2022/10/08 00:19:31;;;;;;;11.17;4.23;;;;;;;12.17;79.10;101445.84;5263491;28;20055;-72
2022/10/08 00:22:03;;;;;;;17.17;3.57;;;;;;;12.23;79.37;101448.41;5262983;28;20073;-73
2022/10/08 00:24:34;;;;;;;14.00;4.20;;;;;;;12.25;79.35;101448.38;5263226;28;20499;-72
2022/10/08 00:27:06;;;;;;;14.77;3.75;;;;;;;12.28;79.37;101444.00;5263007;28;20071;-72
2022/10/08 00:29:37;;;;;;;12.27;3.83;;;;;;;12.42;78.70;101450.84;5263137;28;20036;-74
2022/10/08 00:32:10;;;;;;;13.33;4.13;;;;;;;12.33;79.28;101442.22;5262736;28;20048;-74
2022/10/08 00:34:42;;;;;;;11.10;4.20;;;;;;;12.42;79.21;101436.03;5261933;28;20088;-73
2022/10/08 00:37:14;;;;;;;13.17;3.50;;;;;;;12.42;79.11;101436.03;5263208;28;20112;-72
2022/10/08 00:39:45;;;;;;;10.02;3.45;;;;;;;12.44;79.48;101441.25;5262277;28;20029;-72
2022/10/08 00:42:17;;;;;;;14.10;3.80;;;;;;;12.46;79.39;101445.59;5261304;28;20025;-72
2022/10/08 00:44:54;;;;;;;13.73;4.93;;;;;;;12.45;79.94;101440.38;5262639;28;20036;-73
2022/10/08 00:47:34;;;;;;;12.60;3.85;;;;;;;12.46;79.89;101449.94;5262905;28;20017;-73
2022/10/08 00:50:08;;;;;;;14.05;3.70;;;;;;;12.54;79.93;101446.38;5263366;28;20210;-74
2022/10/08 00:52:47;;;;;;;15.10;3.90;;;;;;;12.54;80.23;101450.72;5262323;28;20065;-74
2022/10/08 00:55:22;;;;;;;14.15;3.83;;;;;;;12.55;80.13;101444.63;5262524;28;20029;-73
2022/10/08 00:58:00;;;;;;;15.75;3.72;;;;;;;12.57;80.26;101456.81;5262393;28;20060;-73
2022/10/08 01:00:32;;;;;;;19.92;4.63;;;;;;;12.56;80.60;101454.19;5262627;28;20056;-73
2022/10/08 01:03:03;;;;;;;15.02;3.67;;;;;;;12.55;80.64;101458.53;5262252;28;20037;-73
2022/10/08 01:05:54;;;;;;;16.77;4.00;;;;;;;12.57;80.77;101458.53;5262194;28;20025;-74
2022/10/08 01:08:53;;;;;;;13.48;3.58;;;;;;;12.59;80.83;101472.47;5262348;28;20090;-74
2022/10/08 01:11:56;;;;;;;15.35;3.72;;;;;;;12.60;80.84;101471.59;5261956;28;20048;-74
2022/10/08 01:14:43;;;;;;;16.42;3.10;;;;;;;12.61;81.23;101470.72;5262928;28;20068;-74
2022/10/08 01:17:27;;;;;;;12.30;3.13;;;;;;;12.57;82.73;101476.84;5263101;28;20029;-73
2022/10/08 01:20:19;;;;;;;11.73;4.38;;;;;;;12.57;83.99;101489.91;5262550;28;20029;-73
2022/10/08 01:23:12;;;;;;;12.75;3.75;;;;;;;12.35;86.44;101479.66;5262209;28;20049;-73
2022/10/08 01:25:58;;;;;;;15.48;4.20;;;;;;;12.27;87.22;101483.22;5262203;28;20036;-75
2022/10/08 01:28:41;;;;;;;10.18;3.92;;;;;;;12.18;88.28;101481.56;5261932;28;20032;-72
2022/10/08 01:31:22;;;;;;;15.38;3.85;;;;;;;12.14;88.11;101479.84;5262743;28;20044;-73
2022/10/08 01:34:00;;;;;;;11.52;3.38;;;;;;;12.10;88.31;101468.53;5262455;28;20119;-72
2022/10/08 01:36:37;;;;;;;11.32;3.35;;;;;;;12.04;89.09;101472.09;5262707;28;20033;-72
2022/10/08 01:39:16;;;;;;;15.70;3.20;;;;;;;12.03;89.57;101477.31;5262978;28;20036;-72
2022/10/08 01:41:55;;;;;;;12.25;3.53;;;;;;;11.99;90.40;101480.84;5262373;28;20055;-72
2022/10/08 01:44:59;;;;;;;11.55;3.17;;;;;;;11.93;89.98;101476.53;5262031;28;20111;-72
2022/10/08 01:47:34;;;;;;;14.80;3.70;;;;;;;11.87;90.45;101471.31;5245017;28;20040;-72
2022/10/08 01:50:15;;;;;;;10.40;3.17;;;;;;;11.88;90.38;101480.00;5262048;28;20028;-73
2022/10/08 01:52:53;;;;;;;11.57;3.20;;;;;;;11.92;90.53;101477.41;5262079;28;20460;-73
2022/10/08 01:55:34;;;;;;;14.55;3.33;;;;;;;11.88;90.41;101478.25;5261919;28;20445;-73
2022/10/08 01:58:11;;;;;;;9.85;3.67;;;;;;;11.83;90.52;101483.53;5261469;28;20445;-73
2022/10/08 02:00:45;;;;;;;11.38;2.90;;;;;;;11.79;91.04;101500.09;5261954;28;20099;-72
2022/10/08 02:03:17;;;;;;;9.40;3.25;;;;;;;11.75;91.89;101498.41;5261886;28;20032;-72
2022/10/08 02:05:52;;;;;;;13.37;3.43;;;;;;;11.64;92.08;101495.84;5262325;28;20033;-72
2022/10/08 02:08:23;;;;;;;12.50;3.53;;;;;;;11.62;92.73;101497.59;5262348;28;20049;-72
2022/10/08 02:10:54;;;;;;;8.77;3.00;;;;;;;11.59;92.96;101497.63;5262009;28;20060;-72
2022/10/08 02:13:26;;;;;;;11.13;3.00;;;;;;;11.45;94.35;101499.44;5264424;28;20468;-71
2022/10/08 02:16:26;;;;;;;10.43;2.97;;;;;;;11.32;95.43;101496.00;5266130;28;20037;-72
2022/10/08 02:19:15;;;;;;;11.18;2.75;;;;;;;11.25;96.27;101499.50;5266200;28;20036;-72
2022/10/08 02:21:51;;;;;;;13.23;3.28;;;;;;;11.18;96.15;101501.28;5265297;28;20021;-72
2022/10/08 02:24:29;;;;;;;7.78;2.85;;;;;;;11.20;96.39;101491.69;5266691;28;20406;-73
2022/10/08 02:27:03;;;;;;;9.18;2.67;;;;;;;11.17;96.49;101494.31;5264354;28;20029;-72
2022/10/08 02:29:40;;;;;;;11.10;3.40;;;;;;;11.16;96.89;101502.16;5265104;28;20480;-72
2022/10/08 02:32:27;;;;;;;7.15;2.78;;;;;;;11.11;97.38;101502.19;5265660;28;20060;-71
2022/10/08 02:35:14;;;;;;;10.43;2.72;;;;;;;11.04;98.17;101503.91;5265362;28;20037;-71
2022/10/08 02:37:56;;;;;;;12.50;2.65;;;;;;;11.10;98.58;101500.44;5265554;28;20029;-71
2022/10/08 02:40:29;;;;;;;11.38;3.22;;;;;;;11.03;98.70;101496.09;5265668;28;20067;-72
2022/10/08 02:43:05;;;;;;;;;;;;;;;11.07;96.87;101508.28;5265842;28;20029;-72
2022/10/08 02:45:59;;;;;;;9.60;3.08;;;;;;;10.99;98.48;101494.38;5265843;28;20348;-72
2022/10/08 02:48:34;;;;;;;10.73;2.90;;;;;;;10.93;98.78;101496.16;5265312;28;20029;-71
2022/10/08 02:51:09;;;;;;;8.13;2.65;;;;;;;10.86;99.57;101497.03;5263856;28;20029;-71
2022/10/08 02:53:41;;;;;;;8.77;2.63;;;;;;;10.89;99.31;101497.00;5265139;28;20506;-71
2022/10/08 02:56:19;;;;;;;6.60;2.90;;;;;;;10.87;100.00;101497.91;5265122;28;20029;-72
2022/10/08 02:58:51;;;;;;;6.95;2.55;;;;;;;10.81;99.81;101490.09;5263818;28;20023;-72
2022/10/08 03:01:38;;;;;;;8.80;3.17;;;;;;;10.80;99.95;101489.22;5265285;28;20040;-72
2022/10/08 03:04:20;;;;;;;7.10;3.17;;;;;;;10.86;100.00;101490.94;5265242;28;20044;-72
2022/10/08 03:06:53;;;;;;;12.63;3.03;;;;;;;10.87;100.00;101493.56;5264894;28;20033;-72
2022/10/08 03:09:32;;;;;;;11.77;3.40;;;;;;;10.84;100.00;101492.69;5265113;28;20027;-72
2022/10/08 03:12:05;;;;;;;9.18;3.08;;;;;;;10.83;100.00;101499.63;5264772;28;20040;-72
2022/10/08 03:14:39;;;;;;;12.80;4.28;;;;;;;10.83;100.00;101496.16;5264751;28;20029;-72
2022/10/08 03:17:14;;;;;;;7.20;2.42;;;;;;;10.76;100.00;101505.75;5264531;28;20068;-73
2022/10/08 03:19:46;;;;;;;7.80;2.85;;;;;;;10.76;100.00;101505.75;5264861;28;20087;-73
2022/10/08 03:22:18;;;;;;;8.23;2.97;;;;;;;10.84;100.00;101505.75;5264561;28;20140;-72
2022/10/08 03:24:49;;;;;;;9.38;3.22;;;;;;;10.81;100.00;101509.22;5263755;28;20135;-73
2022/10/08 03:27:20;;;;;;;8.43;2.93;;;;;;;10.82;100.00;101516.19;5263097;28;20029;-72
2022/10/08 03:29:55;;;;;;;9.33;3.00;;;;;;;10.81;100.00;101508.34;5263545;28;20464;-72
2022/10/08 03:32:27;;;;;;;9.40;2.95;;;;;;;10.77;100.00;101513.56;5264567;28;20028;-72
2022/10/08 03:34:58;;;;;;;12.17;3.00;;;;;;;10.82;100.00;101512.69;5264318;28;20076;-73
2022/10/08 03:37:30;;;;;;;10.20;3.10;;;;;;;10.82;100.00;101521.41;5263002;28;20071;-72
2022/10/08 03:40:01;;;;;;;11.33;3.33;;;;;;;10.77;100.00;101526.63;5264205;28;20475;-72
2022/10/08 03:42:32;;;;;;;8.53;3.43;;;;;;;10.82;100.00;101529.22;5263822;28;20055;-72
2022/10/08 03:45:04;;;;;;;8.53;3.00;;;;;;;10.77;100.00;101525.75;5263851;28;20052;-73
2022/10/08 03:47:36;;;;;;;10.05;2.60;;;;;;;10.69;100.00;101535.28;5264570;28;20049;-72
2022/10/08 03:50:08;;;;;;;9.50;3.13;;;;;;;10.58;100.00;101538.78;5264481;28;20428;-72
2022/10/08 03:52:39;;;;;;;7.82;3.10;;;;;;;10.56;100.00;101540.53;5264318;28;20025;-72
2022/10/08 03:55:10;;;;;;;6.70;2.73;;;;;;;10.48;100.00;101536.19;5264016;28;20036;-72
2022/10/08 03:57:42;;;;;;;10.03;3.40;;;;;;;10.42;100.00;101533.56;5263848;28;20041;-72
2022/10/08 04:00:13;;;;;;;11.63;3.30;;;;;;;10.34;100.00;101536.22;5263840;28;20031;-72
2022/10/08 04:02:49;;;;;;;7.50;3.00;;;;;;;10.27;100.00;101535.31;5264002;28;20033;-72
2022/10/08 04:05:20;;;;;;;12.45;3.67;;;;;;;10.22;100.00;101530.09;5263592;28;20036;-73
2022/10/08 04:07:51;;;;;;;11.63;3.87;;;;;;;10.18;100.00;101532.69;5263691;28;20033;-73
2022/10/08 04:10:23;;;;;;;11.90;4.50;;;;;;;10.15;100.00;101543.97;5264130;28;20021;-73
2022/10/08 04:12:54;;;;;;;9.53;3.37;;;;;;;10.15;100.00;101541.34;5263836;28;20029;-72
2022/10/08 04:15:25;;;;;;;12.80;4.57;;;;;;;10.13;100.00;101537.03;5263244;28;20025;-73
2022/10/08 04:17:57;;;;;;;10.63;4.83;;;;;;;10.19;100.00;101550.03;5263171;28;20431;-72
2022/10/08 04:20:28;;;;;;;15.27;4.90;;;;;;;10.26;100.00;101548.34;5262536;28;20029;-73
2022/10/08 04:23:00;;;;;;;10.63;5.50;;;;;;;10.35;100.00;101548.34;5263395;28;20056;-72
2022/10/08 04:25:31;;;;;;;13.80;7.33;;;;;;;10.39;100.00;101545.75;5263215;28;20083;-72
2022/10/08 04:28:03;;;;;;;12.80;7.93;;;;;;;10.43;100.00;101549.22;5263359;28;20061;-72
2022/10/08 04:30:35;;;;;;;13.52;9.32;;;;;;;10.50;100.00;101550.13;5264001;28;20036;-72
2022/10/08 04:33:06;;;;;;;16.17;11.27;;;;;;;10.53;100.00;101553.59;5263235;28;20025;-72
2022/10/08 04:35:37;;;;;;;24.77;14.03;;;;;;;10.60;100.00;101556.19;5245078;28;20033;-72
2022/10/08 04:38:09;;;;;;;21.30;14.20;;;;;;;10.61;100.00;101564.00;5263154;28;20039;-72
2022/10/08 04:40:40;;;;;;;21.47;16.17;;;;;;;10.66;100.00;101563.97;5263116;28;20115;-72
2022/10/08 04:43:12;;;;;;;26.77;16.50;;;;;;;10.68;100.00;101568.34;5263401;28;20040;-72
2022/10/08 04:45:44;;;;;;;26.40;17.13;;;;;;;10.72;100.00;101567.47;5263264;28;20044;-73
2022/10/08 04:48:15;;;;;;;28.08;20.10;;;;;;;10.80;100.00;101572.66;5263776;28;20039;-73
2022/10/08 04:50:47;;;;;;;33.80;22.90;;;;;;;10.81;100.00;101578.78;5261762;28;20025;-74
2022/10/08 04:53:18;;;;;;;36.27;24.97;;;;;;;10.81;100.00;101579.63;5263157;28;20044;-72
2022/10/08 04:55:50;;;;;;;38.07;25.70;;;;;;;10.87;100.00;101586.59;5262297;28;20040;-72
2022/10/08 04:58:23;;;;;;;40.53;26.70;;;;;;;10.86;100.00;101587.44;5262941;28;20468;-72
2022/10/08 05:00:55;;;;;;;37.72;27.27;;;;;;;10.86;100.00;101596.13;5262577;28;20039;-72
2022/10/08 05:03:26;;;;;;;41.80;28.03;;;;;;;10.91;100.00;101597.00;5262890;28;20021;-72
2022/10/08 05:05:57;;;;;;;43.07;28.60;;;;;;;10.87;100.00;101599.63;5262774;28;20111;-73
2022/10/08 05:08:29;;;;;;;41.43;29.50;;;;;;;10.83;100.00;101590.06;5262693;28;20110;-72
2022/10/08 05:11:00;;;;;;;43.70;29.90;;;;;;;10.87;100.00;101602.25;5262862;28;20029;-72
2022/10/08 05:13:31;;;;;;;45.60;30.87;;;;;;;10.89;100.00;101600.50;5262858;28;20057;-72
2022/10/08 05:16:08;;;;;;;42.50;31.27;;;;;;;10.93;100.00;101605.72;5261206;28;20036;-72
2022/10/08 05:18:41;;;;;;;48.78;32.15;;;;;;;10.89;100.00;101608.31;5262612;28;20025;-72
2022/10/08 05:21:15;;;;;;;50.33;34.05;;;;;;;10.88;100.00;101606.56;5262553;28;20033;-73
2022/10/08 05:23:47;;;;;;;48.65;32.47;;;;;;;10.88;100.00;101599.63;5262753;28;20049;-72
2022/10/08 05:26:21;;;;;;;51.40;34.60;;;;;;;10.92;100.00;101605.72;5262400;28;20041;-72
2022/10/08 05:28:55;;;;;;;58.38;36.33;;;;;;;10.94;100.00;101611.78;5262825;28;20025;-71
2022/10/08 05:31:28;;;;;;;51.05;34.30;;;;;;;10.91;100.00;101610.03;5262698;28;20431;-72
2022/10/08 05:33:59;;;;;;;46.90;33.80;;;;;;;10.87;100.00;101617.91;5277936;28;20040;-72
2022/10/08 05:36:33;;;;;;;47.27;34.77;;;;;;;10.76;100.00;101621.34;5261257;28;20033;-72
2022/10/08 05:39:05;;;;;;;53.45;34.13;;;;;;;10.77;100.00;101615.28;5262451;28;20040;-72
2022/10/08 05:41:37;;;;;;;50.55;34.40;;;;;;;10.77;100.00;101623.09;5262312;28;20048;-74
2022/10/08 05:44:10;;;;;;;50.42;36.58;;;;;;;10.80;100.00;101634.41;5262352;28;20073;-73
2022/10/08 05:46:41;;;;;;;;;;;;;;;10.77;100.00;101627.47;5262523;28;20190;-72
2022/10/08 05:49:21;;;;;;;55.75;35.17;;;;;;;10.75;100.00;101627.47;5266381;28;20011;-73
2022/10/08 05:51:52;;;;;;;57.72;37.78;;;;;;;10.84;100.00;101636.16;5266156;28;20021;-73
2022/10/08 05:54:24;;;;;;;58.40;37.57;;;;;;;10.83;100.00;101642.22;5266445;28;20476;-72
2022/10/08 05:56:55;;;;;;;52.90;36.63;;;;;;;10.85;100.00;101648.31;5265055;28;20040;-72
2022/10/08 05:59:26;;;;;;;59.63;36.60;;;;;;;10.79;100.00;101650.91;5265920;28;20033;-72
2022/10/08 06:01:58;;;;;;;59.13;38.03;;;;;;;10.76;100.00;101655.25;5265788;28;20504;-71
2022/10/08 06:04:29;;;;;;;55.03;38.57;;;;;;;10.70;100.00;101654.41;5265911;28;20047;-73
2022/10/08 06:07:00;;;;;;;65.83;39.90;;;;;;;10.57;100.00;101661.34;5265978;28;20059;-73
2022/10/08 06:09:31;;;;;;;62.33;38.17;;;;;;;10.52;100.00;101668.28;5265982;28;20083;-72
2022/10/08 06:12:03;;;;;;;63.40;39.67;;;;;;;10.49;100.00;101666.53;5265558;28;20063;-71
2022/10/08 06:14:34;;;;;;;62.93;39.33;;;;;;;10.49;100.00;101670.88;5265676;28;20033;-72
2022/10/08 06:17:06;;;;;;;66.10;39.53;;;;;;;10.45;100.00;101672.63;5265832;28;20036;-72
2022/10/08 06:19:37;;;;;;;71.17;38.07;;;;;;;10.45;100.00;101675.22;5265617;28;20110;-71
2022/10/08 06:22:09;;;;;;;67.40;40.67;;;;;;;10.39;100.00;101685.63;5265249;28;20471;-71
2022/10/08 06:24:40;;;;;;;69.83;40.77;;;;;;;10.40;100.00;101687.38;5265387;28;20041;-71
2022/10/08 06:27:11;;;;;;;69.63;41.30;;;;;;;10.38;100.00;101683.88;5265808;28;20021;-71
2022/10/08 06:29:43;;;;;;;61.47;40.90;;;;;;;10.42;100.00;101697.78;5265511;28;20105;-71
2022/10/08 06:32:14;;;;;;;67.57;40.83;;;;;;;10.43;100.00;101695.19;5264135;28;20037;-71
2022/10/08 06:34:45;;;;;;;63.63;38.47;;;;;;;10.44;100.00;101698.69;5265331;28;20029;-71
2022/10/08 06:37:17;;;;;;;69.60;43.37;;;;;;;10.41;100.00;101699.53;5263938;28;20037;-71
2022/10/08 06:39:48;;;;;;;71.30;42.23;;;;;;;10.44;100.00;101709.09;5265492;28;20400;-71
2022/10/08 06:42:19;;;;;;;65.37;39.30;;;;;;;10.40;100.00;101711.69;5263431;28;20051;-71
2022/10/08 06:44:51;;;;;;;65.83;40.30;;;;;;;10.42;100.00;101713.41;5265273;28;20048;-71
2022/10/08 06:47:22;;;;;;;68.70;41.07;;;;;;;10.45;100.00;101729.06;5264964;28;20052;-71
2022/10/08 06:49:53;;;;;;;63.37;38.87;;;;;;;10.49;100.00;101730.84;5264773;28;20033;-75
2022/10/08 06:52:25;;;;;;;61.20;39.17;;;;;;;10.57;100.00;101729.97;5265373;28;20052;-71
2022/10/08 06:54:56;;;;;;;58.10;37.10;;;;;;;10.68;100.00;101735.22;5264683;28;20029;-72
2022/10/08 06:57:27;;;;;;;50.67;36.30;;;;;;;10.72;100.00;101744.81;5265318;28;20061;-73
2022/10/08 06:59:59;;;;;;;47.20;34.33;;;;;;;10.80;100.00;101746.53;5264553;28;20041;-72
2022/10/08 07:02:30;;;;;;;53.37;32.70;;;;;;;10.86;100.00;101759.59;5263351;28;20100;-71
2022/10/08 07:05:02;;;;;;;48.47;31.97;;;;;;;10.92;100.00;101764.84;5264612;28;20037;-71
2022/10/08 07:07:33;;;;;;;45.87;30.70;;;;;;;10.99;100.00;101765.72;5264502;28;20033;-71
2022/10/08 07:10:05;;;;;;;50.83;29.37;;;;;;;11.07;100.00;101779.63;5264788;28;20036;-72
2022/10/08 07:12:36;;;;;;;43.37;26.87;;;;;;;11.09;100.00;101780.50;5264820;28;20040;-70
2022/10/08 07:15:08;;;;;;;37.30;25.40;;;;;;;11.07;100.00;101782.25;5264082;28;20041;-72
2022/10/08 07:17:39;;;;;;;32.85;22.92;;;;;;;11.09;100.00;101786.59;5263956;28;20040;-70
2022/10/08 07:20:11;;;;;;;43.00;24.83;;;;;;;11.07;100.00;101795.28;5264076;28;20037;-70
2022/10/08 07:22:42;;;;;;;31.73;21.60;;;;;;;11.05;100.00;101795.28;5263856;28;20453;-70
2022/10/08 07:25:13;;;;;;;29.63;20.57;;;;;;;11.10;100.00;101797.91;5264181;28;20072;-70
2022/10/08 07:27:45;;;;;;;26.10;20.03;;;;;;;11.20;100.00;101797.03;5263547;28;20068;-71
2022/10/08 07:30:16;;;;;;;23.60;18.87;;;;;;;11.26;100.00;101806.63;5264036;28;20389;-70
2022/10/08 07:32:51;;;;;;;28.00;19.23;;;;;;;11.27;100.00;101808.34;5264180;28;20029;-70
2022/10/08 07:35:22;;;;;;;25.17;16.88;;;;;;;11.30;100.00;101806.63;5263861;28;20039;-71
2022/10/08 07:37:55;;;;;;;26.73;16.13;;;;;;;11.39;100.00;101810.97;5263886;28;20033;-71
2022/10/08 07:40:26;;;;;;;26.23;16.13;;;;;;;11.50;100.00;101813.59;5263742;28;20025;-84
2022/10/08 07:42:57;;;;;;;22.67;14.60;;;;;;;11.60;100.00;101817.06;5263625;28;20036;-73
2022/10/08 07:45:29;;;;;;;20.70;12.90;;;;;;;11.68;100.00;101821.41;5263738;28;20072;-71
2022/10/08 07:48:01;;;;;;;19.90;12.32;;;;;;;11.72;100.00;101824.00;5262915;28;20036;-71
2022/10/08 07:50:32;;;;;;;16.23;11.17;;;;;;;11.84;100.00;101835.31;5262412;28;20354;-71
2022/10/08 07:53:04;;;;;;;17.77;10.23;;;;;;;11.88;100.00;101832.72;5263059;28;20036;-74
2022/10/08 07:55:35;;;;;;;17.67;9.07;;;;;;;12.03;99.43;101830.97;5263423;28;20036;-71
2022/10/08 07:58:07;;;;;;;14.27;8.93;;;;;;;12.09;99.05;101829.22;5263720;28;20731;-73
2022/10/08 08:00:39;;;;;;;12.63;7.17;;;;;;;12.17;97.38;101837.91;5263560;28;20183;-71
2022/10/08 08:03:13;;;;;;;17.42;7.10;;;;;;;12.17;94.12;101840.50;5262113;28;20134;-71
2022/10/08 08:05:44;;;;;;;12.60;6.88;;;;;;;12.26;94.27;101842.25;5263239;28;20540;-70
2022/10/08 08:08:16;;;;;;;17.30;7.10;;;;;;;12.34;94.23;101840.47;5263022;28;20068;-71
2022/10/08 08:10:47;;;;;;;13.87;6.40;;;;;;;12.45;94.43;101853.53;5262497;28;20025;-73
2022/10/08 08:13:18;;;;;;;19.80;5.83;;;;;;;12.52;93.74;101850.88;5245402;28;20123;-71
2022/10/08 08:16:01;;;;;;;13.50;6.03;;;;;;;12.55;91.22;101855.22;5263398;28;20032;-70
2022/10/08 08:18:36;;;;;;;18.50;7.82;;;;;;;12.57;90.56;101859.59;5263297;28;20537;-70
2022/10/08 08:21:10;;;;;;;17.52;5.65;;;;;;;12.64;89.57;101865.66;5263844;28;20086;-71
2022/10/08 08:23:45;;;;;;;12.52;5.00;;;;;;;12.73;90.32;101873.44;5263167;28;20448;-71
2022/10/08 08:26:18;;;;;;;11.48;5.75;;;;;;;12.75;87.73;101876.94;5262976;28;20465;-72
2022/10/08 08:28:52;;;;;;;10.25;3.83;;;;;;;12.76;86.33;101880.41;5262891;28;20111;-71
2022/10/08 08:31:29;;;;;;;15.40;5.10;;;;;;;12.84;86.64;101888.25;5263192;28;20111;-72
2022/10/08 08:34:05;;;;;;;12.27;5.00;;;;;;;12.99;87.59;101890.78;5262443;28;20068;-71
2022/10/08 08:36:39;;;;;;;10.65;4.15;;;;;;;13.11;87.43;101898.56;5262877;28;20028;-71
2022/10/08 08:39:26;;;;;;;16.70;4.57;;;;;;;13.15;85.85;101902.03;5262601;28;20542;-71
2022/10/08 08:42:17;;;;;;;12.23;4.05;;;;;;;13.16;84.82;101895.06;5263275;28;20028;-73
2022/10/08 08:45:01;;;;;;;13.35;4.25;;;;;;;13.23;84.68;101897.63;5262999;28;20463;-71
2022/10/08 08:47:36;;;;;;;9.48;3.90;;;;;;;13.28;83.14;101913.31;5262534;28;20033;-71
2022/10/08 08:50:20;;;;;;;9.13;3.33;;;;;;;13.43;81.89;101923.72;5262783;28;20033;-71
2022/10/08 08:52:52;;;;;;;11.85;4.07;;;;;;;13.43;79.11;101920.25;5262562;28;20027;-71
2022/10/08 08:55:45;;;;;;;9.02;3.45;;;;;;;13.69;78.87;101927.91;5263272;28;20352;-71
2022/10/08 08:58:26;;;;;;;11.10;3.20;;;;;;;13.81;77.06;101917.34;5261441;28;20036;-71
2022/10/08 09:01:07;;;;;;;10.18;4.13;;;;;;;13.80;75.97;101928.72;5262461;28;20086;-71
2022/10/08 09:03:47;;;;;;;9.38;3.05;;;;;;;13.86;75.39;101927.78;5262394;28;20040;-72
2022/10/08 09:06:22;;;;;;;7.57;2.65;;;;;;;13.99;74.55;101933.78;5262342;28;20029;-72
2022/10/08 09:09:35;;;;;;;8.52;2.72;;;;;;;14.37;75.69;101925.56;5262307;28;20025;-72
2022/10/08 09:12:20;;;;;;;6.85;2.40;;;;;;;14.53;71.58;101931.50;5251040;28;20388;-72
2022/10/08 09:14:55;;;;;;;11.45;2.90;;;;;;;14.71;71.25;101930.47;5262553;28;20040;-72
2022/10/08 09:17:37;;;;;;;9.23;2.58;;;;;;;14.78;67.99;101939.16;5262314;28;20029;-72
2022/10/08 09:20:14;;;;;;;8.40;1.95;;;;;;;14.52;68.41;101937.66;5262056;28;20039;-72
2022/10/08 09:22:48;;;;;;;7.82;2.60;;;;;;;14.63;68.00;101945.44;5264169;28;20068;-84
2022/10/08 09:25:24;;;;;;;10.70;2.70;;;;;;;14.40;67.29;101948.28;5266420;28;20036;-72
2022/10/08 09:27:59;;;;;;;13.07;3.47;;;;;;;14.50;66.83;101954.28;5266641;28;20021;-77
2022/10/08 09:30:38;;;;;;;10.80;2.83;;;;;;;14.50;67.16;101960.41;5266470;28;20052;-72
2022/10/08 09:33:12;;;;;;;6.50;2.50;;;;;;;15.21;66.66;101961.38;5267026;28;20338;-72
2022/10/08 09:35:48;;;;;;;12.65;3.40;;;;;;;15.49;62.97;101969.75;5266418;28;20461;-72
2022/10/08 09:38:23;;;;;;;8.68;2.17;;;;;;;16.01;62.05;101963.69;5264838;28;20040;-73
2022/10/08 09:41:15;;;;;;;8.38;2.10;;;;;;;15.73;61.08;101976.41;5266129;28;20033;-73
2022/10/08 09:44:06;;;;;;;9.10;2.07;;;;;;;16.14;60.95;101974.03;5266790;28;20029;-72
2022/10/08 09:46:38;;;;;;;7.45;1.88;;;;;;;16.49;59.60;101967.28;5265357;28;20033;-73
2022/10/08 09:49:48;;;;;;;5.70;2.00;;;;;;;17.26;59.78;101977.16;5266856;28;20105;-73
2022/10/08 09:52:25;;;;;;;6.55;2.53;;;;;;;16.79;57.47;101984.22;5248750;28;20662;-74
2022/10/08 09:55:09;;;;;;;8.40;2.47;;;;;;;16.94;58.23;101986.59;5266272;28;20361;-72
2022/10/08 09:57:48;;;;;;;9.00;2.90;;;;;;;17.41;57.37;101990.91;5266685;28;20025;-73
2022/10/08 10:00:28;;;;;;;7.00;2.72;;;;;;;17.46;55.98;101996.94;5266304;28;20090;-73
2022/10/08 10:03:02;;;;;;;7.50;2.65;;;;;;;17.04;56.99;101999.59;5266157;28;20032;-71
2022/10/08 10:05:35;;;;;;;8.25;2.38;;;;;;;17.46;55.93;101987.25;5265675;28;20033;-73
2022/10/08 10:08:52;;;;;;;7.40;2.75;;;;;;;17.73;54.64;101992.78;5265871;28;20380;-75
2022/10/08 10:11:35;;;;;;;8.32;2.28;;;;;;;17.91;52.55;102004.72;5276670;28;20048;-72
2022/10/08 10:14:17;;;;;;;6.18;2.05;;;;;;;18.39;50.74;102001.75;5265800;28;20040;-72
2022/10/08 10:17:11;;;;;;;8.30;2.80;;;;;;;18.83;50.82;101996.16;5266223;28;20028;-72
2022/10/08 10:19:53;;;;;;;7.18;2.03;;;;;;;19.27;48.92;102004.63;5244397;28;20045;-72
2022/10/08 10:23:02;;;;;;;7.05;1.88;;;;;;;19.76;47.14;101999.63;5265407;28;20048;-73
2022/10/08 10:25:40;;;;;;;8.25;2.10;;;;;;;19.23;46.97;102002.13;5266088;28;20032;-73
2022/10/08 10:28:27;;;;;;;7.88;2.15;;;;;;;19.38;47.50;101999.00;5265703;28;20128;-73
2022/10/08 10:31:12;;;;;;;8.48;2.00;;;;;;;19.39;46.95;102003.38;5266109;28;20064;-73
2022/10/08 10:33:59;;;;;;;7.85;2.55;;;;;;;19.46;47.72;102015.53;5265523;28;20025;-73
2022/10/08 10:36:35;;;;;;;8.27;2.08;;;;;;;17.62;48.02;102014.13;5265436;28;20112;-73
2022/10/08 10:39:26;;;;;;;5.22;1.65;;;;;;;16.64;51.66;102016.97;5265259;28;20482;-73
2022/10/08 10:42:14;;;;;;;5.03;1.80;;;;;;;17.54;50.71;102012.59;5265405;28;20029;-72
2022/10/08 10:44:55;;;;;;;14.45;2.67;;;;;;;18.56;48.04;102016.28;5265663;28;20060;-72
2022/10/08 10:47:30;;;;;;;7.30;2.38;;;;;;;18.78;46.49;102017.41;5265179;28;20108;-73
2022/10/08 10:50:02;;;;;;;8.15;2.20;;;;;;;19.77;43.55;102019.00;5265032;28;20139;-73
2022/10/08 10:52:42;;;;;;;5.78;1.95;;;;;;;20.11;43.61;102018.78;5264963;28;20037;-73
2022/10/08 10:55:31;;;;;;;7.00;2.28;;;;;;;20.30;41.92;102021.69;5264819;28;20029;-73
2022/10/08 10:58:34;;;;;;;8.95;2.53;;;;;;;20.23;42.95;102020.16;5265059;28;20506;-77
2022/10/08 11:01:05;;;;;;;6.22;1.75;;;;;;;20.38;40.59;102019.63;5265497;28;20535;-73
2022/10/08 11:03:45;;;;;;;4.93;2.40;;;;;;;20.44;41.18;102023.00;5264628;28;20109;-75
2022/10/08 11:06:19;;;;;;;5.55;1.80;;;;;;;21.28;41.34;102019.06;5264225;28;20033;-73
2022/10/08 11:09:07;;;;;;;4.93;1.60;;;;;;;21.19;39.09;102024.72;5264166;28;20025;-74
2022/10/08 11:11:56;;;;;;;5.30;2.00;;;;;;;20.75;41.59;102025.44;5264590;28;20052;-73
2022/10/08 11:14:43;;;;;;;5.80;2.00;;;;;;;19.75;41.31;102028.75;5264398;28;20051;-74
2022/10/08 11:17:33;;;;;;;5.18;1.85;;;;;;;19.80;42.47;102037.41;5264760;28;20029;-73
2022/10/08 11:20:38;;;;;;;5.95;1.55;;;;;;;21.31;39.72;102027.78;5264244;28;20028;-72
2022/10/08 11:23:28;;;;;;;6.70;2.30;;;;;;;22.24;38.54;102031.25;5264330;28;20061;-73
2022/10/08 11:26:28;;;;;;;4.13;1.73;;;;;;;22.18;37.75;102027.88;5264807;28;20041;-73
2022/10/08 11:29:28;;;;;;;4.60;1.80;;;;;;;22.49;36.97;102033.72;5246309;28;20128;-74
2022/10/08 11:32:00;;;;;;;11.13;1.95;;;;;;;21.05;37.74;102036.72;5264022;28;20040;-73
2022/10/08 11:34:33;;;;;;;;;;;;;;;20.39;39.90;102037.25;5264250;28;20029;-72
2022/10/08 11:37:14;;;;;;;6.40;2.08;;;;;;;18.25;45.96;102055.81;5264600;28;20212;-75
2022/10/08 11:40:09;;;;;;;6.63;2.20;;;;;;;18.07;46.97;102042.16;5263543;28;20021;-73
2022/10/08 11:43:04;;;;;;;12.05;1.95;;;;;;;18.79;44.79;102047.38;5264293;28;20021;-74
2022/10/08 11:45:38;;;;;;;8.85;1.98;;;;;;;18.90;44.22;102052.38;5221510;28;20037;-72
2022/10/08 11:48:32;;;;;;;10.85;1.83;;;;;;;20.09;39.85;102041.78;5263874;28;20340;-73
2022/10/08 11:51:19;;;;;;;7.60;2.03;;;;;;;20.73;38.97;102059.94;5263701;28;20452;-72
2022/10/08 11:54:08;;;;;;;5.65;2.33;;;;;;;22.06;37.38;102043.47;5263647;28;20358;-72
2022/10/08 11:56:47;;;;;;;4.75;1.88;;;;;;;23.27;35.58;102043.56;5264007;28;20045;-73
2022/10/08 11:59:27;;;;;;;10.20;1.88;;;;;;;23.80;33.47;102046.41;5263453;28;20025;-73